Latest Weather Observations for Yulara

IDD60801

Issued at 8:01 pm CST Tuesday 4 August 2020 (issued every 10 minutes, with the page automatically refreshed every 10 minutes)

About weather observations | Map of weather stations | Latest weather observations for NT | Other Formats
Station Details ID: 015635 Name: YULARA AIRPORT Lat: -25.19 Lon: 130.97 Height: 492.0 m
Data from the previous 72 hours. | See also: Recent months at Yulara
Date/Time
CST
Temp
°C
App
Temp
°C
Dew
Point
°C
Rel
Hum
%
Delta-T
°C
Wind Press
QNH
hPa
Press
MSL
hPa
Rain since
9am
mm
Dir  Spd
km/h
Gust
km/h
Spd
kts
Gust
kts
04/08:00pm 23.1 19.4 -4.9 15 11.9 NW 6 7 3 4 1010.0 1009.2 0.0
04/07:30pm 23.9 19.6 -5.2 14 12.4 NW 9 11 5 6 1009.8 1009.0 0.0
04/07:00pm 25.4 20.2 -6.0 12 13.3 NNW 13 17 7 9 1009.4 1008.5 0.0
04/06:30pm 26.3 20.4 -5.3 12 13.7 NNW 17 22 9 12 1009.3 1008.4 0.0
04/06:00pm 27.3 20.1 -5.7 11 14.3 NNW 24 32 13 17 1009.1 1008.2 0.0
04/05:30pm 27.7 20.8 -6.6 10 14.7 NNW 22 28 12 15 1009.0 1008.1 0.0
04/05:00pm 28.6 21.0 -6.0 10 15.1 NNW 26 35 14 19 1008.8 1007.9 0.0
04/04:30pm 28.4 21.5 -6.1 10 15.0 NNW 22 32 12 17 1008.8 1007.9 0.0
04/04:00pm 28.4 20.1 -4.9 11 14.8 NNW 30 44 16 24 1009.0 1008.1 0.0
04/03:30pm 28.6 20.2 -6.0 10 15.1 NW 30 43 16 23 1009.1 1008.2 0.0
04/03:00pm 28.9 20.9 -5.7 10 15.2 NNW 28 41 15 22 1009.3 1008.4 0.0
04/02:32pm 29.5 21.4 -6.7 9 15.7 NW 28 48 15 26 1009.6 1008.8 0.0
04/02:30pm 29.5 22.2 -6.7 9 15.7 NW 24 39 13 21 1009.6 1008.8 0.0
04/02:00pm 28.8 20.0 -5.8 10 15.1 NW 32 44 17 24 1010.1 1009.3 0.0
04/01:30pm 28.5 20.1 -6.0 10 15.0 NNW 30 41 16 22 1010.7 1009.8 0.0
04/01:00pm 28.2 20.5 -6.3 10 14.9 NNW 26 35 14 19 1011.4 1010.6 0.0
04/12:30pm 27.1 19.0 -7.1 10 14.4 N 28 37 15 20 1011.9 1011.1 0.0
04/12:00pm 26.6 19.3 -6.2 11 14.0 N 24 33 13 18 1012.8 1011.9 0.0
04/11:30am 25.5 18.9 -7.1 11 13.5 NNW 20 28 11 15 1013.2 1012.4 0.0
04/11:00am 23.6 18.6 -8.5 11 12.8 NNE 11 17 6 9 1013.6 1012.8 0.0
04/10:30am 20.5 16.3 -9.8 12 11.4 ENE 6 7 3 4 1013.9 1013.1 0.0
04/10:00am 18.8 14.7 -9.2 14 10.4 NE 6 7 3 4 1014.2 1013.4 0.0
04/09:30am 17.6 13.5 -9.3 15 9.9 ENE 6 9 3 5 1014.0 1013.2 0.0
04/09:00am 15.7 10.9 -10.0 16 9.1 E 9 9 5 5 1013.8 1013.0 0.0
04/08:59am 15.5 11.1 -10.2 16 9.0 E 7 9 4 5 1013.8 1013.0 0.0
04/08:30am 10.5 6.0 -11.5 20 7.0 S 7 9 4 5 1013.7 1012.9 0.0
04/08:00am 8.0 3.1 -12.4 22 6.1 S 9 11 5 6 1013.4 1012.6 0.0
04/07:30am 7.6 2.7 -12.2 23 5.9 S 9 11 5 6 1013.3 1012.5 0.0
04/07:00am 6.6 2.2 -13.0 23 5.7 S 6 7 3 4 1012.9 1012.0 0.0
04/06:30am 5.8 1.4 -13.2 24 5.4 S 6 7 3 4 1012.8 1011.9 0.0
04/06:00am 5.1 0.5 -13.3 25 5.5 S 7 9 4 5 1012.6 1011.7 0.0
04/05:30am 5.2 0.6 -13.2 25 5.2 S 7 9 4 5 1012.5 1011.6 0.0
04/05:00am 4.4 -0.1 -14.9 23 5.4 S 6 7 3 4 1012.5 1011.6 0.0
04/04:30am 5.1 0.7 -13.8 24 5.6 SSE 6 7 3 4 1012.6 1011.7 0.0
04/04:00am 5.0 0.5 -14.4 23 5.6 SSE 6 7 3 4 1012.7 1011.8 0.0
04/03:30am 5.8 1.1 -14.2 22 5.6 SSE 7 9 4 5 1012.9 1012.0 0.0
04/03:00am 6.3 1.7 -13.3 23 5.6 S 7 7 4 4 1013.1 1012.3 0.0
04/02:30am 5.8 1.3 -14.2 22 5.6 S 6 7 3 4 1013.2 1012.4 0.0
04/02:00am 8.0 3.6 -12.4 22 6.1 SSE 6 7 3 4 1013.5 1012.7 0.0
04/01:30am 8.7 4.2 -12.4 21 6.4 SSE 7 9 4 5 1013.7 1012.9 0.0
04/01:00am 6.8 2.3 -14.6 20 6.0 SSE 6 7 3 4 1013.9 1013.1 0.0
04/12:30am 7.6 4.3 -13.9 20 6.2 CALM 0 6 0 3 1014.1 1013.3 0.0
04/12:00am 8.1 4.8 -14.1 19 6.4 CALM 0 0 0 0 1014.1 1013.3 0.0
 
Date/Time
CST
Temp
°C
App
Temp
°C
Dew
Point
°C
Rel
Hum
%
Delta-T
°C
Wind Press
QNH
hPa
Press
MSL
hPa
Rain since
9am
mm
Dir  Spd
km/h
Gust
km/h
Spd
kts
Gust
kts
03/11:30pm 8.3 3.8 -14.6 18 6.6 S 6 7 3 4 1014.1 1013.3 0.0
03/11:00pm 9.2 4.7 -14.5 17 6.9 S 6 7 3 4 1014.0 1013.2 0.0
03/10:30pm 9.6 6.3 -14.2 17 7.0 CALM 0 0 0 0 1014.1 1013.3 0.0
03/10:00pm 10.1 6.8 -14.5 16 7.3 CALM 0 0 0 0 1014.0 1013.2 0.0
03/09:30pm 10.5 7.2 -14.2 16 7.4 CALM 0 0 0 0 1013.9 1013.1 0.0
03/09:00pm 11.3 8.0 -14.4 15 7.8 CALM 0 0 0 0 1013.7 1012.9 0.0
03/08:30pm 12.9 9.6 -13.9 14 8.4 CALM 0 0 0 0 1013.5 1012.7 0.0
03/08:00pm 13.7 10.3 -15.1 12 8.9 CALM 0 0 0 0 1013.3 1012.5 0.0
03/07:30pm 16.0 12.7 -13.3 12 9.7 CALM 0 0 0 0 1013.0 1012.2 0.0
03/07:00pm 20.0 15.6 -12.5 10 11.5 N 6 9 3 5 1012.7 1011.8 0.0
03/06:30pm 22.6 18.0 -13.3 8 12.9 NNW 7 9 4 5 1012.5 1011.6 0.0
03/06:00pm 25.5 20.2 -12.8 7 14.3 NNW 11 17 6 9 1012.3 1011.5 0.0
03/05:30pm 26.6 20.9 -12.0 7 14.8 NW 13 19 7 10 1012.2 1011.4 0.0
03/05:00pm 26.6 20.2 -12.0 7 14.8 NW 17 24 9 13 1012.3 1011.5 0.0
03/04:30pm 26.8 19.8 -11.8 7 14.9 NW 20 30 11 16 1012.5 1011.6 0.0
03/04:00pm 26.7 19.9 -11.9 7 14.9 NW 19 26 10 14 1012.6 1011.7 0.0
03/03:30pm 27.0 20.6 -11.7 7 15.0 NNW 17 26 9 14 1012.9 1012.0 0.0
03/03:00pm 26.9 20.5 -11.8 7 15.0 NW 17 28 9 15 1013.0 1012.2 0.0
03/02:30pm 26.7 20.3 -11.9 7 14.9 NW 17 28 9 15 1013.5 1012.7 0.0
03/02:00pm 26.1 19.3 -12.3 7 14.6 NW 19 30 10 16 1014.1 1013.3 0.0
03/01:30pm 25.5 19.0 -12.8 7 14.3 NNW 17 26 9 14 1014.7 1013.8 0.0
03/01:00pm 24.6 17.6 -11.8 8 13.7 NNW 20 30 11 16 1015.4 1014.6 0.0
03/12:30pm 24.1 17.3 -12.2 8 13.5 NW 19 28 10 15 1015.8 1015.0 0.0
03/12:00pm 22.9 17.3 -11.6 9 12.8 NW 13 22 7 12 1016.4 1015.6 0.0
03/11:30am 22.0 17.2 -11.0 10 12.3 NNW 9 15 5 8 1016.9 1016.1 0.0
03/11:00am 19.9 16.1 -10.3 12 11.1 SE 4 6 2 3 1017.3 1016.5 0.0
03/10:30am 18.3 14.2 -8.7 15 10.1 ESE 6 9 3 5 1017.6 1016.8 0.0
03/10:00am 16.9 12.3 -8.3 17 9.4 E 9 13 5 7 1017.5 1016.7 0.0
03/09:30am 14.6 10.0 -8.1 20 8.2 ESE 9 15 5 8 1017.4 1016.6 0.0
03/09:00am 12.4 7.1 -7.6 24 7.1 SE 13 19 7 10 1017.4 1016.6 0.0
03/08:30am 8.2 3.5 -9.2 28 5.7 S 9 13 5 7 1017.3 1016.5 0.0
03/08:00am 5.1 -0.1 -10.2 32 4.6 SSW 11 13 6 7 1016.9 1016.1 0.0
03/07:30am 3.7 -1.2 -11.4 32 4.6 SSW 9 11 5 6 1016.6 1015.9 0.0
03/07:00am 3.9 -0.6 -11.7 31 4.7 S 7 9 4 5 1016.4 1015.6 0.0
03/06:30am 4.5 -0.4 -12.0 29 5.0 S 9 11 5 6 1016.3 1015.5 0.0
03/06:00am 5.2 0.3 -12.2 27 5.0 SSW 9 13 5 7 1016.1 1015.3 0.0
03/05:30am 3.9 -1.1 -13.4 27 5.0 S 9 11 5 6 1015.8 1015.0 0.0
03/05:00am 4.8 0.2 -12.6 27 5.2 SSE 7 9 4 5 1015.6 1014.8 0.0
03/04:30am 5.4 0.8 -12.5 26 5.1 S 7 11 4 6 1015.8 1015.0 0.0
03/04:00am 5.8 1.3 -12.2 26 5.3 S 7 11 4 6 1015.9 1015.1 0.0
03/03:30am 5.4 0.4 -13.5 24 5.3 S 9 9 5 5 1016.2 1015.4 0.0
03/03:00am 5.3 0.7 -13.6 24 5.3 S 7 9 4 5 1016.3 1015.5 0.0
03/02:30am 5.0 0.4 -13.9 24 5.5 S 7 9 4 5 1016.4 1015.6 0.0
03/02:00am 5.2 0.8 -13.7 24 5.6 S 6 7 3 4 1016.4 1015.6 0.0
03/01:30am 6.0 1.6 -13.5 23 5.5 SE 6 6 3 3 1016.6 1015.9 0.0
03/01:00am 6.2 1.7 -14.5 21 5.7 SE 6 7 3 4 1016.6 1015.9 0.0
03/12:30am 6.6 2.5 -14.1 21 5.8 SE 4 7 2 4 1016.8 1016.0 0.0
03/12:00am 7.6 3.2 -13.3 21 6.1 SE 6 6 3 3 1017.1 1016.3 0.0
 
Date/Time
CST
Temp
°C
App
Temp
°C
Dew
Point
°C
Rel
Hum
%
Delta-T
°C
Wind Press
QNH
hPa
Press
MSL
hPa
Rain since
9am
mm
Dir  Spd
km/h
Gust
km/h
Spd
kts
Gust
kts
02/11:30pm 9.7 5.4 -12.1 20 6.8 ESE 6 7 3 4 1017.3 1016.5 0.0
02/11:00pm 9.9 5.5 -12.6 19 6.9 SE 6 7 3 4 1017.6 1016.8 0.0
02/10:30pm 9.3 4.3 -13.8 18 6.8 SSE 9 11 5 6 1017.5 1016.7 0.0
02/10:00pm 10.9 6.5 -13.2 17 7.4 SSE 6 7 3 4 1017.6 1016.8 0.0
02/09:30pm 11.4 7.0 -12.7 17 7.6 SE 6 7 3 4 1017.4 1016.6 0.0
02/09:00pm 12.5 8.9 -12.6 16 8.0 S 2 7 1 4 1017.3 1016.5 0.0
02/08:30pm 14.8 10.9 -11.5 15 8.9 SW 4 6 2 3 1017.1 1016.3 0.0
02/08:00pm 15.6 11.1 -11.8 14 9.3 SW 7 9 4 5 1017.0 1016.2 0.0
02/07:30pm 15.3 10.3 -12.9 13 9.3 SW 9 9 5 5 1016.9 1016.1 0.0
02/07:20pm 16.5 11.9 -13.0 12 9.9 SW 7 9 4 5 1016.6 1015.9 0.0
02/07:08pm 18.5 13.6 -12.5 11 10.8 WSW 9 9 5 5 1016.6 1015.9 0.0
02/07:00pm 19.1 14.2 -12.0 11 11.0 WSW 9 9 5 5 1016.8 1016.0 0.0
02/06:30pm 21.6 16.7 -12.6 9 12.3 W 9 9 5 5 1016.5 1015.8 0.0
02/06:00pm 24.6 19.7 -11.8 8 13.7 WNW 9 13 5 7 1016.4 1015.6 0.0
02/05:30pm 25.5 20.7 -11.1 8 14.1 WNW 9 15 5 8 1016.3 1015.5 0.0
02/05:00pm 25.7 20.9 -11.0 8 14.2 WNW 9 22 5 12 1016.1 1015.3 0.0
02/04:30pm 25.7 20.5 -11.0 8 14.2 WNW 11 22 6 12 1016.0 1015.2 0.0
02/04:00pm 25.5 19.9 -11.1 8 14.1 W 13 20 7 11 1016.0 1015.2 0.0
02/03:30pm 24.8 19.9 -11.7 8 13.8 NNW 9 17 5 9 1016.2 1015.4 0.0
02/03:00pm 25.9 21.1 -10.8 8 14.3 WSW 9 17 5 9 1016.4 1015.6 0.0
02/02:30pm 24.2 18.6 -10.6 9 13.4 NW 13 20 7 11 1016.9 1016.1 0.0
02/02:00pm 24.2 18.6 -10.6 9 13.4 NW 13 19 7 10 1017.3 1016.5 0.0
02/01:30pm 23.8 18.2 -10.9 9 13.2 NNW 13 19 7 10 1017.9 1017.1 0.0
02/01:00pm 23.7 19.0 -9.7 10 13.0 NNW 9 15 5 8 1018.7 1018.0 0.0
02/12:30pm 22.4 17.8 -8.4 12 12.1 NNE 9 19 5 10 1019.5 1018.7 0.0
02/12:00pm 21.5 17.3 -8.0 13 11.5 NNW 7 13 4 7 1020.1 1019.4 0.0
02/11:30am 21.0 16.8 -7.5 14 11.2 NE 7 11 4 6 1020.7 1020.0 0.0
02/11:00am 18.8 14.8 -6.0 18 9.9 ESE 7 13 4 7 1021.1 1020.3 0.0
02/10:30am 17.9 13.6 -5.3 20 9.2 ENE 9 13 5 7 1021.3 1020.5 0.0
02/10:00am 16.4 11.7 -5.3 22 8.5 ENE 11 17 6 9 1021.2 1020.4 0.0
02/09:30am 13.8 8.7 -5.3 26 7.3 E 13 17 7 9 1021.2 1020.4 0.0
02/09:00am 12.0 7.3 -5.5 29 6.5 ESE 11 15 6 8 1021.2 1020.4 0.0
02/08:30am 9.3 4.9 -5.7 34 5.4 SE 9 15 5 8 1020.9 1020.2 0.0
02/08:00am 4.2 -0.4 -7.9 41 3.8 S 9 11 5 6 1020.6 1019.9 0.0
02/07:30am 3.1 -1.9 -8.2 43 3.7 S 11 13 6 7 1020.5 1019.8 0.0
02/07:00am 3.3 -2.1 -8.4 42 3.8 SSW 13 15 7 8 1020.4 1019.7 0.0
02/06:30am 3.7 -1.3 -8.3 41 4.0 SSW 11 13 6 7 1020.4 1019.7 0.0
02/06:00am 3.8 -1.3 -9.2 38 4.2 SSW 11 17 6 9 1020.2 1019.5 0.0
02/05:30am 4.5 -1.0 -9.6 35 4.3 S 13 15 7 8 1019.9 1019.1 0.0
02/05:00am 6.2 1.6 -8.5 34 4.7 S 9 15 5 8 1019.9 1019.1 0.0
02/04:30am 6.7 1.6 -9.6 30 5.1 S 11 17 6 9 1019.7 1018.9 0.0
02/04:00am 7.5 2.9 -8.1 32 5.2 SSE 9 11 5 6 1019.9 1019.1 0.0
02/03:30am 5.3 0.4 -12.2 27 5.0 SE 9 13 5 7 1019.9 1019.1 0.0
02/03:00am 5.7 0.9 -10.5 30 4.9 SSE 9 11 5 6 1020.2 1019.5 0.0
02/02:30am 7.6 2.4 -10.6 26 5.7 SSE 11 13 6 7 1020.3 1019.6 0.0
02/02:00am 7.5 3.1 -10.3 27 5.6 SSE 7 7 4 4 1020.4 1019.7 0.0
02/01:30am 6.8 2.6 -10.4 28 5.3 ESE 6 7 3 4 1020.4 1019.7 0.0
02/01:00am 7.0 2.7 -11.6 25 5.6 E 6 7 3 4 1020.5 1019.8 0.0
02/12:30am 10.5 6.3 -9.7 23 6.7 E 6 7 3 4 1020.8 1020.1 0.0
02/12:00am 10.4 6.2 -9.8 23 6.7 ESE 6 7 3 4 1020.9 1020.2 0.0
 
Date/Time
CST
Temp
°C
App
Temp
°C
Dew
Point
°C
Rel
Hum
%
Delta-T
°C
Wind Press
QNH
hPa
Press
MSL
hPa
Rain since
9am
mm
Dir  Spd
km/h
Gust
km/h
Spd
kts
Gust
kts
01/11:30pm 10.5 6.1 -10.3 22 6.8 E 7 9 4 5 1020.8 1020.1 0.0
01/11:00pm 10.0 6.2 -10.1 23 6.6 ESE 4 6 2 3 1020.8 1020.1 0.0
01/10:30pm 11.1 6.7 -10.4 21 7.1 ESE 7 9 4 5 1021.1 1020.3 0.0
01/10:00pm 12.1 7.9 -10.1 20 7.5 SE 6 7 3 4 1020.9 1020.2 0.0
01/09:30pm 11.2 6.3 -11.5 19 7.3 SE 9 11 5 6 1020.9 1020.2 0.0
01/09:00pm 14.7 9.5 -10.8 16 8.7 SE 11 13 6 7 1021.1 1020.3 0.0
01/08:30pm 15.4 9.9 -10.3 16 8.9 SE 13 15 7 8 1021.1 1020.3 0.0

Other formats

Comma delimited format used in spreadsheet applications
http://www.bom.gov.au/fwo/IDD60801/IDD60801.94462.axf

JavaScript Object Notation format (JSON) in row-major order
http://www.bom.gov.au/fwo/IDD60801/IDD60801.94462.json

Data quality

Most of these data are generated automatically and are frequently updated. Quality checks on data are not normally performed. It is possible for incorrect values to appear. Refer to information at About Latest Weather Observations and please check the disclaimer before using these data.